Data for 08/30/2015

Time Sea-Level Adjusted Pressure Absolute Pressure Temperature Relative Humidity Dew Point   
(mb) (inHg) (mb) (inHg) (C) (F) (%) (C) (F)
00:05 1014 29.94 843 24.89 24.5 76.1 27 4.7 40.4
00:10 1014 29.94 843 24.89 24.2 75.6 26 3.8 38.9
00:15 1014 29.94 843 24.89 24.4 75.9 26 4.1 39.4
00:20 1014 29.94 843 24.89 24.5 76 25 3.2 37.8
00:25 1014 29.94 843 24.89 24.9 76.8 24 3.2 37.8
00:30 1014 29.94 843 24.89 25.2 77.3 23 3.1 37.6
00:35 1014 29.94 843 24.89 25.3 77.5 24 3.7 38.6
00:40 1014 29.94 843 24.89 25 77 25 4 39.2
00:45 1014 29.94 843 24.89 24.7 76.5 26 4.3 39.7
00:50 1014 29.94 843 24.89 24.6 76.3 26 3.8 38.9
00:55 1014 29.94 843 24.89 24.5 76 27 4.3 39.7
01:00 1014 29.94 843 24.89 24.2 75.6 27 4.3 39.8
01:05 1014 29.94 843 24.89 24.2 75.6 26 4 39.2
01:10 1014 29.94 843 24.89 24.2 75.5 27 4.5 40.1
01:15 1014 29.94 843 24.89 24 75.3 27 4.2 39.5
01:20 1014 29.94 843 24.89 23.9 75.1 28 4.3 39.7
01:25 1014 29.94 843 24.89 23.8 74.8 28 4.3 39.7
01:30 1014 29.94 843 24.89 23.8 74.9 28 4.3 39.7
01:35 1014 29.94 843 24.89 23.7 74.7 28 4.2 39.5
01:40 1014 29.94 843 24.89 23.7 74.7 28 4.2 39.5
01:45 1014 29.94 843 24.89 23.8 74.8 27 3.9 39.1
01:50 1014 29.94 843 24.89 23.8 74.8 29 4.8 40.6
01:55 1014 29.94 843 24.89 23.2 73.7 30 4.9 40.8
02:00 1014 29.94 843 24.89 22.9 73.2 31 5 41.1
02:05 1014 29.94 843 24.89 22.7 72.9 31 5 41
02:10 1014 29.94 843 24.89 22.8 73 32 5.3 41.5
02:15 1014 29.94 843 24.89 22.6 72.7 32 5.2 41.3
02:20 1014 29.94 843 24.89 22.6 72.6 31 4.9 40.9
02:25 1014 29.94 843 24.89 22.7 72.8 31 4.9 40.8
02:30 1014 29.94 843 24.89 22.8 73 31 5.2 41.3
02:35 1014 29.94 843 24.89 22.8 73 31 5.1 41.1
02:40 1014 29.94 843 24.89 22.8 73 31 5 41
02:45 1014 29.94 843 24.89 22.5 72.6 34 6 42.9
02:50 1014 29.94 843 24.89 21.7 71.1 37 6.4 43.6
02:55 1014 29.94 843 24.89 21.1 69.9 38 6.5 43.7
03:00 1014 29.94 843 24.89 20.7 69.2 40 6.6 43.9
03:05 1014 29.94 843 24.89 20.5 68.9 40 6.6 44
03:10 1014 29.94 843 24.89 20.4 68.8 41 6.8 44.2
03:15 1014 29.94 843 24.89 20.4 68.7 41 6.9 44.4
03:20 1014 29.94 843 24.89 20.3 68.5 41 6.8 44.3
03:25 1014 29.94 843 24.89 20.2 68.3 42 7.1 44.7
03:30 1014 29.94 844 24.92 20 68 43 7.1 44.7
03:35 1014 29.94 844 24.92 20 67.9 42 6.8 44.2
03:40 1014 29.94 844 24.92 20 67.9 43 7.3 45.1
03:45 1015 29.97 844 24.92 19.3 66.7 47 7.9 46.3
03:50 1015 29.97 844 24.92 18.7 65.7 48 7.6 45.7
03:55 1015 29.97 844 24.92 18.6 65.5 47 7.4 45.2
04:00 1015 29.97 844 24.92 18.6 65.6 48 7.5 45.4
04:05 1015 29.97 844 24.92 18.5 65.4 48 7.5 45.6
04:10 1015 29.97 844 24.92 18.5 65.2 48 7.5 45.5
04:15 1015 29.97 844 24.92 18.6 65.4 47 7.2 45
04:20 1015 29.97 844 24.92 18.7 65.6 47 7.4 45.3
04:25 1015 29.97 844 24.92 18.7 65.7 48 7.6 45.7
04:30 1015 29.97 844 24.92 18.7 65.7 47 7.3 45.2
04:35 1015 29.97 844 24.92 18.7 65.7 48 7.7 45.9
04:40 1015 29.97 844 24.92 18.5 65.3 49 7.6 45.7
04:45 1015 29.97 844 24.92 18.4 65.2 48 7.4 45.3
04:50 1015 29.97 844 24.92 18.5 65.4 48 7.4 45.3
04:55 1015 29.97 844 24.92 18.6 65.4 48 7.6 45.6
05:00 1015 29.97 845 24.95 18.5 65.3 49 7.7 45.9
05:05 1015 29.97 845 24.95 18.4 65.1 48 7.4 45.4
05:10 1015 29.97 845 24.95 18.6 65.4 48 7.6 45.6
05:15 1015 29.97 845 24.95 18.6 65.5 49 7.8 46.1
05:20 1015 29.97 845 24.95 18.3 65 50 7.8 46
05:25 1016 30 845 24.95 18 64.5 49 7.2 45
05:30 1017 30.03 846 24.98 17.8 64.1 58 9.5 49
05:35 1017 30.03 846 24.98 16.4 61.5 71 11.1 52
05:40 1017 30.03 846 24.98 15.1 59.2 73 10.4 50.6
05:45 1018 30.06 847 25.01 14.9 58.8 73 10.2 50.3
05:50 1018 30.06 848 25.04 14.8 58.6 76 10.6 51
05:55 1018 30.06 847 25.01 14.5 58.1 77 10.6 51.1
06:00 1018 30.06 847 25.01 14 57.2 79 10.4 50.7
06:05 1018 30.06 847 25.01 13.8 56.9 81 10.6 51.1
06:10 1018 30.06 847 25.01 13.8 56.8 81 10.7 51.2
06:15 1018 30.06 847 25.01 13.8 56.9 81 10.7 51.2
06:20 1018 30.06 847 25.01 13.9 56.9 81 10.6 51.2
06:25 1018 30.06 847 25.01 13.9 57.1 79 10.3 50.6
06:30 1018 30.06 847 25.01 14 57.2 78 10.3 50.6
06:35 1018 30.06 847 25.01 14.1 57.3 76 9.9 49.9
06:40 1018 30.06 847 25.01 14.3 57.7 77 10.3 50.6
06:45 1018 30.06 847 25.01 14.4 57.9 77 10.4 50.7
06:50 1018 30.06 847 25.01 14.7 58.5 73 9.9 49.9
06:55 1018 30.06 848 25.04 14.9 58.9 73 10.2 50.4
07:00 1018 30.06 848 25.04 14.9 58.8 75 10.6 51.1
07:05 1019 30.09 848 25.04 14.7 58.4 76 10.5 50.9
07:10 1019 30.09 848 25.04 14.5 58.2 78 10.8 51.4
07:15 1018 30.06 848 25.04 14.2 57.6 79 10.7 51.3
07:20 1019 30.09 848 25.04 14.2 57.6 80 10.9 51.6
07:25 1019 30.09 848 25.04 14.3 57.7 82 11.4 52.4
07:30 1018 30.06 848 25.04 14.3 57.7 81 11.1 51.9
07:35 1018 30.06 847 25.01 14.3 57.8 82 11.3 52.3
07:40 1018 30.06 847 25.01 14.4 57.9 83 11.5 52.8
07:45 1018 30.06 847 25.01 15 58.9 79 11.4 52.4
07:50 1018 30.06 847 25.01 15 58.9 77 10.9 51.7
07:55 1018 30.06 847 25.01 14.7 58.5 80 11.3 52.4
08:00 1017 30.03 846 24.98 14.3 57.7 80 10.9 51.6
08:05 1016 30 845 24.95 13.8 56.8 81 10.7 51.2
08:10 1015 29.97 845 24.95 13.6 56.4 79 10 50
08:15 1015 29.97 845 24.95 13.7 56.6 79 10.1 50.1
08:20 1016 30 845 24.95 14.1 57.3 76 10 50.1
08:25 1016 30 845 24.95 14.3 57.7 76 10.1 50.2
08:30 1016 30 845 24.95 14.3 57.7 76 10 50.1
08:35 1016 30 845 24.95 14.3 57.7 76 10.1 50.3
08:40 1016 30 845 24.95 14.5 58.1 77 10.6 51.1
08:45 1016 30 845 24.95 14.8 58.6 74 10.2 50.3
08:50 1016 30 845 24.95 14.9 58.9 75 10.6 51
08:55 1016 30 845 24.95 15 59 72 10 50.1
09:00 1016 30 846 24.98 15.3 59.5 75 10.9 51.6
09:05 1016 30 846 24.98 15.5 59.9 70 10 50.1
09:10 1016 30 846 24.98 16.1 60.9 68 10.2 50.4
09:15 1016 30 846 24.98 16.3 61.4 67 10.4 50.7
09:20 1016 30 846 24.98 17 62.6 66 10.6 51.1
09:25 1016 30 846 24.98 17.7 63.9 60 10 50
09:30 1016 30 846 24.98 18.3 64.9 58 10 50
09:35 1016 30 846 24.98 18.5 65.4 57 10 50
09:40 1016 30 845 24.95 18.7 65.7 54 9.4 49
09:45 1016 30 845 24.95 18.9 66.1 52 8.9 48
09:50 1016 30 845 24.95 19.1 66.3 52 9 48.3
09:55 1016 30 845 24.95 19.7 67.4 49 8.7 47.6
10:00 1016 30 845 24.95 20.2 68.4 49 9.2 48.5
10:05 1016 30 845 24.95 20.7 69.3 47 9.3 48.7
10:10 1016 30 845 24.95 20.7 69.3 45 8.4 47.2
10:15 1016 30 845 24.95 21.2 70.2 44 8.7 47.7
10:20 1016 30 845 24.95 21.6 70.9 41 8.1 46.6
10:25 1016 30 845 24.95 21.9 71.4 41 8.3 46.9
10:30 1016 30 845 24.95 21.8 71.2 40 7.8 46
10:35 1016 30 845 24.95 22.7 72.9 38 7.9 46.2
10:40 1016 30 845 24.95 22.9 73.2 36 7.3 45.2
10:45 1016 30 845 24.95 23.1 73.5 34 6.8 44.2
10:50 1016 30 845 24.95 22.6 72.6 38 7.6 45.6
10:55 1016 30 845 24.95 22.9 73.1 36 7.2 45
11:00 1016 30 845 24.95 23.1 73.5 36 7.6 45.6
11:05 1016 30 845 24.95 23.4 74.2 35 7.2 45
11:10 1016 30 845 24.95 24 75.1 34 7.4 45.3
11:15 1015 29.97 845 24.95 23.9 75 34 7.3 45.2
11:20 1015 29.97 845 24.95 23.3 73.9 34 6.6 43.9
11:25 1015 29.97 844 24.92 24 75.2 34 7.6 45.6
11:30 1015 29.97 844 24.92 24 75.3 33 6.8 44.2
11:35 1015 29.97 844 24.92 23.8 74.8 32 6.5 43.7
11:40 1015 29.97 844 24.92 24.2 75.5 32 6.8 44.2
11:45 1015 29.97 844 24.92 24.4 76 33 7.2 45
11:50 1015 29.97 844 24.92 24.5 76 32 7.1 44.8
11:55 1015 29.97 844 24.92 24.5 76 32 7 44.7
12:00 1015 29.97 844 24.92 24.4 75.9 33 7.1 44.8
12:05 1015 29.97 844 24.92 24.6 76.2 31 6.3 43.4
12:10 1014 29.94 844 24.92 24.1 75.4 30 5.6 42.1
12:15 1014 29.94 844 24.92 24.7 76.4 31 6.5 43.7
12:20 1014 29.94 843 24.89 24.6 76.3 30 6.3 43.3
12:25 1014 29.94 843 24.89 24.3 75.7 31 6.2 43.2
12:30 1014 29.94 843 24.89 25.2 77.3 28 5.5 41.8
12:35 1014 29.94 843 24.89 26.2 79.2 27 6.3 43.3
12:40 1014 29.94 843 24.89 26.1 79 27 5.8 42.4
12:45 1014 29.94 843 24.89 26.4 79.5 27 6.4 43.5
12:50 1014 29.94 843 24.89 26.6 79.8 27 6.3 43.3
12:55 1014 29.94 843 24.89 26.4 79.5 27 6.4 43.5
13:00 1014 29.94 843 24.89 25.1 77.1 29 6 42.8
13:05 1014 29.94 843 24.89 25.6 78 27 5.7 42.2
13:10 1014 29.94 843 24.89 26.6 79.9 26 5.6 42.1
13:15 1014 29.94 843 24.89 26.9 80.4 28 6.9 44.4
13:20 1014 29.94 843 24.89 26 78.9 26 5.5 41.9
13:25 1013 29.91 843 24.89 25.9 78.6 27 5.7 42.3
13:30 1013 29.91 843 24.89 26.2 79.1 27 6.2 43.1
13:35 1013 29.91 842 24.86 26.4 79.6 28 6.5 43.7
13:40 1013 29.91 842 24.86 25.8 78.5 28 6 42.8
13:45 1013 29.91 842 24.86 26.4 79.5 27 5.9 42.7
13:50 1013 29.91 842 24.86 26.4 79.6 27 6.3 43.3
13:55 1013 29.91 842 24.86 26.7 80.1 26 6 42.9
14:00 1013 29.91 842 24.86 27.1 80.7 25 5.4 41.8
14:05 1013 29.91 842 24.86 26.7 80 27 6.5 43.6
14:10 1013 29.91 842 24.86 27.2 80.9 29 7.7 45.9
14:15 1013 29.91 842 24.86 27.2 80.9 25 5.9 42.6
14:20 1013 29.91 842 24.86 27.7 81.9 20 3.1 37.6
14:25 1013 29.91 842 24.86 28.1 82.5 22 5 40.9
14:30 1012 29.88 841 24.83 27.4 81.2 14 -2.2 28.1
14:35 1012 29.88 841 24.83 27.6 81.6 13 -3 26.6
14:40 1012 29.88 841 24.83 27.3 81.2 13 -2.8 26.9
14:45 1012 29.88 841 24.83 27.6 81.7 13 -3.4 25.9
14:50 1012 29.88 841 24.83 27.4 81.2 14 -2.7 27.2
14:55 1012 29.88 841 24.83 27.3 81.1 13 -3.6 25.4
15:00 1012 29.88 841 24.83 27.1 80.8 13 -3.4 26
15:05 1012 29.88 841 24.83 26.9 80.5 13 -3.7 25.4
15:10 1012 29.88 841 24.83 26.7 80 13 -3.9 25
15:15 1012 29.88 841 24.83 26.7 80 13 -3.8 25.1
15:20 1012 29.88 841 24.83 26.6 79.9 13 -4.2 24.5
15:25 1012 29.88 841 24.83 26.7 80.1 13 -4.2 24.4
15:30 1012 29.88 841 24.83 26.7 80.1 12 -4.4 24
15:35 1012 29.88 841 24.83 26.7 80.1 12 -4.4 24
15:40 1012 29.88 841 24.83 26.9 80.3 12 -4.2 24.5
15:45 1012 29.88 841 24.83 26.8 80.3 12 -5.2 22.6
15:50 1012 29.88 841 24.83 26.4 79.5 12 -4.6 23.8
15:55 1012 29.88 841 24.83 26.2 79.2 12 -4.7 23.6
16:00 1012 29.88 841 24.83 26.1 78.9 12 -4.8 23.4
16:05 1012 29.88 841 24.83 26.1 78.9 11 -5.9 21.4
16:10 1012 29.88 841 24.83 26.2 79.2 12 -4.9 23.2
16:15 1012 29.88 841 24.83 26.6 79.9 11 -6.3 20.6
16:20 1012 29.88 841 24.83 26.7 80.1 11 -5.4 22.3
16:25 1012 29.88 841 24.83 27.1 80.7 11 -5.8 21.5
16:30 1012 29.88 841 24.83 27 80.5 10 -7 19.4
16:35 1012 29.88 841 24.83 26.7 80.1 10 -7.4 18.6
16:40 1012 29.88 841 24.83 26.7 80 10 -6.8 19.8
16:45 1012 29.88 841 24.83 26.6 79.8 11 -6.1 21
16:50 1012 29.88 841 24.83 26.5 79.6 10 -7.2 19
16:55 1012 29.88 841 24.83 26.5 79.7 11 -5.5 22
17:00 1012 29.88 841 24.83 26.4 79.4 12 -5.4 22.4
17:05 1012 29.88 841 24.83 26.2 79.1 10 -7.1 19.2
17:10 1012 29.88 841 24.83 26 78.8 10 -7.5 18.4
17:15 1012 29.88 841 24.83 25.9 78.6 10 -7.7 18.1
17:20 1012 29.88 841 24.83 25.8 78.4 10 -8 17.6
17:25 1012 29.88 841 24.83 25.6 78.2 11 -6.8 19.8
17:30 1012 29.88 841 24.83 25.4 77.7 10 -7.8 18
17:35 1012 29.88 841 24.83 25.5 77.9 10 -8.2 17.3
17:40 1012 29.88 841 24.83 25.6 78.1 10 -8.2 17.2
17:45 1012 29.88 841 24.83 25.5 77.9 10 -8.6 16.5
17:50 1012 29.88 841 24.83 25.4 77.7 10 -8.5 16.7
17:55 1012 29.88 841 24.83 25.2 77.3 10 -8.2 17.2
18:00 1012 29.88 841 24.83 25 77 9 -9.9 14.2
18:05 1012 29.88 841 24.83 25 77 9 -9.9 14.1
18:10 1012 29.88 841 24.83 24.9 76.8 9 -9.6 14.7
18:15 1012 29.88 841 24.83 24.6 76.4 9 -9.9 14.1
18:20 1012 29.88 841 24.83 24.6 76.2 10 -9.4 15
18:25 1012 29.88 841 24.83 24.2 75.5 10 -9 15.7
18:30 1012 29.88 841 24.83 24 75.2 10 -9.1 15.7
18:35 1012 29.88 842 24.86 23.9 75 11 -7.9 17.8
18:40 1013 29.91 842 24.86 23.5 74.2 12 -7.2 19
18:45 1012 29.88 842 24.86 23.1 73.5 13 -6.7 20
18:50 1013 29.91 842 24.86 22.9 73.2 13 -6.4 20.4
18:55 1013 29.91 842 24.86 23 73.4 12 -7.4 18.7
19:00 1013 29.91 842 24.86 23.3 74 12 -7.7 18.2
19:05 1013 29.91 842 24.86 23.2 73.8 21 -0.3 31.4
19:10 1014 29.94 843 24.89 21.6 70.9 28 2.3 36.1
19:15 1014 29.94 843 24.89 20.1 68.1 31 2.6 36.8
19:20 1014 29.94 843 24.89 19.3 66.7 34 3.1 37.5
19:25 1014 29.94 843 24.89 19 66.2 33 2.7 36.9
19:30 1014 29.94 843 24.89 18.7 65.7 34 2.6 36.7
19:35 1014 29.94 843 24.89 18.7 65.7 34 2.6 36.7
19:40 1014 29.94 844 24.92 18.6 65.5 35 2.9 37.2
19:45 1014 29.94 844 24.92 18.5 65.4 35 2.9 37.3
19:50 1015 29.97 844 24.92 18.5 65.2 34 2.7 36.8
19:55 1015 29.97 844 24.92 18.4 65.1 35 2.9 37.1
20:00 1015 29.97 844 24.92 18.2 64.7 37 3.6 38.4
20:05 1015 29.97 844 24.92 17.9 64.3 36 2.8 37.1
20:10 1015 29.97 844 24.92 18.2 64.7 33 1.9 35.5
20:15 1015 29.97 844 24.92 18.4 65.1 32 1.8 35.2
20:20 1015 29.97 844 24.92 18.6 65.4 33 2.1 35.8
20:25 1015 29.97 845 24.95 18.4 65.2 34 2.3 36.1
20:30 1016 30 845 24.95 18.2 64.8 35 2.7 36.8
20:35 1016 30 845 24.95 18 64.3 36 2.6 36.7
20:40 1016 30 845 24.95 17.9 64.2 36 2.6 36.7
20:45 1016 30 845 24.95 18 64.3 36 2.7 36.9
20:50 1016 30 845 24.95 17.7 63.9 39 3.8 38.9
20:55 1016 30 845 24.95 17 62.7 40 3.6 38.4
21:00 1016 30 845 24.95 17 62.6 39 3 37.4
21:05 1016 30 845 24.95 17.2 63 38 3 37.4
21:10 1016 30 845 24.95 17.3 63.2 37 2.6 36.7
21:15 1016 30 845 24.95 17.3 63.2 37 2.6 36.7
21:20 1016 30 846 24.98 17.2 63 38 2.9 37.3
21:25 1016 30 846 24.98 17.1 62.7 39 3.2 37.8
21:30 1017 30.03 846 24.98 16.8 62.3 41 3.5 38.3
21:35 1017 30.03 846 24.98 16.5 61.6 42 3.8 38.8
21:40 1017 30.03 846 24.98 16.1 60.9 44 3.8 38.8
21:45 1017 30.03 847 25.01 15.6 60.2 43 3.2 37.7
21:50 1018 30.06 847 25.01 14.8 58.7 45 3 37.5
21:55 1018 30.06 847 25.01 14.2 57.6 46 2.8 37.1
22:00 1018 30.06 847 25.01 13.9 57.1 46 2.6 36.7
22:05 1018 30.06 848 25.04 13.7 56.7 46 2.4 36.4
22:10 1019 30.09 848 25.04 13.5 56.4 47 2.5 36.5
22:15 1019 30.09 848 25.04 13.4 56 48 2.6 36.6
22:20 1019 30.09 848 25.04 13.2 55.8 48 2.5 36.4
22:25 1019 30.09 848 25.04 13.1 55.7 48 2.5 36.5
22:30 1019 30.09 848 25.04 13 55.4 48 2.3 36.2
22:35 1019 30.09 848 25.04 13 55.3 48 2.2 36
22:40 1019 30.09 849 25.07 12.9 55.3 48 2.3 36.1
22:45 1019 30.09 849 25.07 12.8 55 50 2.6 36.7
22:50 1019 30.09 849 25.07 12.3 54.1 51 2.6 36.7
22:55 1019 30.09 848 25.04 12.1 53.8 52 2.5 36.6
23:00 1019 30.09 848 25.04 12 53.7 52 2.5 36.4
23:05 1019 30.09 848 25.04 12 53.5 53 2.7 36.9
23:10 1019 30.09 848 25.04 11.8 53.2 53 2.6 36.6
23:15 1019 30.09 848 25.04 11.8 53.2 53 2.5 36.5
23:20 1019 30.09 848 25.04 11.7 53.1 53 2.6 36.7
23:25 1019 30.09 848 25.04 11.6 53 53 2.6 36.6
23:30 1019 30.09 848 25.04 11.6 52.9 54 2.6 36.7
23:35 1019 30.09 848 25.04 11.5 52.7 54 2.7 36.8
23:40 1019 30.09 848 25.04 11.5 52.6 54 2.4 36.4
23:45 1019 30.09 848 25.04 11.6 52.9 54 2.7 36.9
23:50 1019 30.09 848 25.04 11.7 53 54 2.7 36.9
23:55 1019 30.09 848 25.04 11.7 53.1 53 2.6 36.7
24:00 1019 30.09 848 25.04 12 53.5 52 2.6 36.6